Grande Italia — IBTF — position and weather

sailwx.info

Track history (hours):
 
Tides and Currents Weather Stations Pressure Air Temp Water Temp Dewpoint Dewpoint Depression Visibility Wind Speed Wind Dir Waves Ship Positions

Grande Italia

Last reported at 2017-Dec-11 01:59 UTC. Time now 2017-Dec-11 02:28 UTC.
Position N 45°33' E 013°44'.

Length 177 m; draft 7.9 m.

Type: Cargo ship. MMSI: 247039300.

Date/timePositionNaut miles runAvg speedWind from/ knotsBaromVisibWave heightAir tempDewpointWater temp
2017-Dec-11 01:59N 45°33' E 013°44'0 0.0
2017-Dec-11 01:29N 45°33' E 013°44'0 0.0
2017-Dec-11 00:59N 45°33' E 013°44'0 0.0
2017-Dec-11 00:29N 45°33' E 013°44'0 0.0
2017-Dec-10 23:59N 45°33' E 013°44'0 0.0
2017-Dec-10 23:29N 45°33' E 013°44'0 0.0
2017-Dec-10 22:59N 45°33' E 013°44'0 0.0
2017-Dec-10 22:29N 45°33' E 013°44'0 0.0
2017-Dec-10 21:53N 45°33' E 013°44'0 0.0
2017-Dec-10 21:29N 45°33' E 013°44'0 0.0
2017-Dec-10 20:56N 45°33' E 013°44'0 0.0
2017-Dec-10 20:29N 45°33' E 013°44'0 0.0
2017-Dec-10 19:56N 45°33' E 013°44'0 0.0
2017-Dec-10 19:26N 45°33' E 013°44'0 0.0
2017-Dec-10 18:59N 45°33' E 013°44'0 0.0
2017-Dec-10 18:26N 45°33' E 013°44'0 0.0
2017-Dec-10 17:59N 45°33' E 013°44'0 0.0
2017-Dec-10 17:26N 45°33' E 013°44'0 0.0
2017-Dec-10 16:56N 45°33' E 013°44'0 0.0
2017-Dec-10 16:29N 45°33' E 013°44'0 0.0
2017-Dec-10 15:59N 45°33' E 013°44'0 0.0
2017-Dec-10 15:26N 45°33' E 013°44'0 0.7
2017-Dec-10 15:01N 45°33' E 013°44'2 3.2
2017-Dec-10 14:31N 45°34' E 013°41'2 3.8
2017-Dec-10 14:00N 45°35' E 013°39'0 0.3
2017-Dec-10 13:30N 45°35' E 013°39'0 0.0
2017-Dec-10 13:00N 45°35' E 013°39'0 0.0
2017-Dec-10 12:30N 45°35' E 013°39'0 0.1
2017-Dec-10 12:00N 45°35' E 013°39'2 4.9
2017-Dec-10 11:30N 45°35' E 013°35'611.6
2017-Dec-10 11:00N 45°41' E 013°37'612.0
2017-Dec-10 10:30N 45°46' E 013°34'1 1.8
2017-Dec-10 09:59N 45°47' E 013°33'0 0.0
2017-Dec-10 09:29N 45°47' E 013°33'0 0.0
2017-Dec-10 08:56N 45°47' E 013°33'0 0.0
2017-Dec-10 08:29N 45°47' E 013°33'0 0.0
2017-Dec-10 07:53N 45°47' E 013°33'0 0.0
2017-Dec-10 07:29N 45°47' E 013°33'0 0.0
2017-Dec-10 06:59N 45°47' E 013°33'0 0.0
2017-Dec-10 06:29N 45°47' E 013°33'0 0.0
2017-Dec-10 05:59N 45°47' E 013°33'0 0.0
2017-Dec-10 05:26N 45°47' E 013°33'0 0.0
2017-Dec-10 04:53N 45°47' E 013°33'0 0.0
2017-Dec-10 04:29N 45°47' E 013°33'0 0.0
2017-Dec-10 03:59N 45°47' E 013°33'0 0.0
2017-Dec-10 03:29N 45°47' E 013°33'0 0.0
2017-Dec-10 02:59N 45°47' E 013°33'0 0.0
2017-Dec-10 02:26N 45°47' E 013°33'0 0.0
2017-Dec-10 01:56N 45°47' E 013°33'0 0.0
2017-Dec-10 01:26N 45°47' E 013°33'0 0.0
2017-Dec-10 00:59N 45°47' E 013°33'0 0.0
2017-Dec-10 00:29N 45°47' E 013°33'0 0.0
2017-Dec-09 23:59N 45°47' E 013°33'0 0.0
2017-Dec-09 23:26N 45°47' E 013°33'0 0.0
2017-Dec-09 22:53N 45°47' E 013°33'0 0.0
2017-Dec-09 22:29N 45°47' E 013°33'0 0.0
2017-Dec-09 21:50N 45°47' E 013°33'0 0.0
2017-Dec-09 21:23N 45°47' E 013°33'0 0.0
2017-Dec-09 20:56N 45°47' E 013°33'0 0.0
2017-Dec-09 20:29N 45°47' E 013°33'0 0.0
2017-Dec-09 19:59N 45°47' E 013°33'0 0.0
2017-Dec-09 19:17N 45°47' E 013°33'0 0.0
2017-Dec-09 18:59N 45°47' E 013°33'0 0.0
2017-Dec-09 18:29N 45°47' E 013°33'0 0.0
2017-Dec-09 17:59N 45°47' E 013°33'0 0.0
2017-Dec-09 17:29N 45°47' E 013°33'0 0.0
2017-Dec-09 16:59N 45°47' E 013°33'0 0.0
2017-Dec-09 16:29N 45°47' E 013°33'0 0.0
2017-Dec-09 15:56N 45°47' E 013°33'0 0.0
2017-Dec-09 15:29N 45°47' E 013°33'0 0.0
2017-Dec-09 14:59N 45°47' E 013°33'0 0.0
2017-Dec-09 14:29N 45°47' E 013°33'0 0.0
2017-Dec-09 13:59N 45°47' E 013°33'1 1.1
2017-Dec-09 13:30N 45°47' E 013°33'5 9.1
2017-Dec-09 13:00N 45°43' E 013°38'714.4
2017-Dec-09 12:30N 45°36' E 013°35'816.7
2017-Dec-09 12:00N 45°32' E 013°25'816.5
2017-Dec-09 11:30N 45°26' E 013°16'714.8
2017-Dec-09 11:00N 45°19' E 013°13'816.4
2017-Dec-09 10:30N 45°11' E 013°14'714.5
2017-Dec-09 10:00N 45°05' E 013°09'714.7
2017-Dec-09 09:30N 44°59' E 013°02'714.7
2017-Dec-09 09:00N 44°54' E 012°55'714.3
2017-Dec-09 08:30N 44°49' E 012°48'714.1
2017-Dec-09 08:00N 44°44' E 012°41'714.0
2017-Dec-09 07:30N 44°39' E 012°34'814.3
2017-Dec-09 06:56N 44°33' E 012°26'10 0.8
2017-Dec-08 18:34N 44°27' E 012°15'0 0.0
2017-Dec-08 18:22N 44°27' E 012°15'0 0.0
2017-Dec-08 17:58N 44°27' E 012°15'0 0.0
2017-Dec-08 16:16N 44°27' E 012°15'1 1.0
2017-Dec-08 15:15N 44°28' E 012°15'2 5.7
2017-Dec-08 14:58N 44°29' E 012°16'3 7.0
2017-Dec-08 14:30N 44°30' E 012°21'510.8
2017-Dec-08 14:00N 44°29' E 012°28'712.7
2017-Dec-08 13:29N 44°27' E 012°37'817.4
2017-Dec-08 13:00N 44°24' E 012°48'917.5
2017-Dec-08 12:30N 44°21' E 012°60'917.4
2017-Dec-08 12:00N 44°18' E 013°11'917.7
2017-Dec-08 11:30N 44°13' E 013°21'  
2017-Dec-03 00:42N 38°08' E 025°48'317.2
2017-Dec-03 00:30N 38°04' E 025°48'917.2
2017-Dec-02 23:59N 37°56' E 025°51'1117.3
2017-Dec-02 23:19N 37°44' E 025°53'517.3
2017-Dec-02 23:00N 37°39' E 025°54'816.9
2017-Dec-02 22:30N 37°31' E 025°55'816.6
2017-Dec-02 22:01N 37°23' E 025°59'816.6
2017-Dec-02 21:31N 37°15' E 026°03'816.8
2017-Dec-02 21:00N 37°08' E 026°07'816.7
2017-Dec-02 20:31N 37°00' E 026°11'816.2
2017-Dec-02 20:00N 36°54' E 026°18'816.5
2017-Dec-02 19:30N 36°48' E 026°25'816.4
2017-Dec-02 19:01N 36°42' E 026°32'816.6
2017-Dec-02 18:30N 36°37' E 026°40'816.6
2017-Dec-02 18:01N 36°31' E 026°47'816.6
2017-Dec-02 17:30N 36°25' E 026°55'816.8
2017-Dec-02 17:01N 36°19' E 027°02'917.0
2017-Dec-02 16:30N 36°13' E 027°10'916.8
2017-Dec-02 15:59N 36°07' E 027°17'816.7
2017-Dec-02 15:30N 36°00' E 027°23'916.7
2017-Dec-02 14:59N 35°54' E 027°31'38517.3
2017-Dec-01 16:40N 32°58' E 034°26'417.8
2017-Dec-01 16:25N 32°58' E 034°31'717.9
2017-Dec-01 16:00N 32°56' E 034°40'918.0
2017-Dec-01 15:30N 32°54' E 034°50'1017.4
2017-Dec-01 14:58N 32°51' E 035°01'  
Track history (hours):
 
Tides and Currents Weather Stations Pressure Air Temp Water Temp Dewpoint Dewpoint Depression Visibility Wind Speed Wind Dir Waves Ship Positions

Grande Italia

Last reported at 2017-Dec-11 01:59 UTC. Time now 2017-Dec-11 02:28 UTC.
Position N 45°33' E 013°44'.

Length 177 m; draft 7.9 m.

Type: Cargo ship. MMSI: 247039300.

Date/timePositionNaut miles runAvg speedWind from/ knotsBaromVisibWave heightAir tempDewpointWater temp
2017-Dec-11 01:59N 45°33' E 013°44'0 0.0
2017-Dec-11 01:29N 45°33' E 013°44'0 0.0
2017-Dec-11 00:59N 45°33' E 013°44'0 0.0
2017-Dec-11 00:29N 45°33' E 013°44'0 0.0
2017-Dec-10 23:59N 45°33' E 013°44'0 0.0
2017-Dec-10 23:29N 45°33' E 013°44'0 0.0
2017-Dec-10 22:59N 45°33' E 013°44'0 0.0
2017-Dec-10 22:29N 45°33' E 013°44'0 0.0
2017-Dec-10 21:53N 45°33' E 013°44'0 0.0
2017-Dec-10 21:29N 45°33' E 013°44'0 0.0
2017-Dec-10 20:56N 45°33' E 013°44'0 0.0
2017-Dec-10 20:29N 45°33' E 013°44'0 0.0
2017-Dec-10 19:56N 45°33' E 013°44'0 0.0
2017-Dec-10 19:26N 45°33' E 013°44'0 0.0
2017-Dec-10 18:59N 45°33' E 013°44'0 0.0
2017-Dec-10 18:26N 45°33' E 013°44'0 0.0
2017-Dec-10 17:59N 45°33' E 013°44'0 0.0
2017-Dec-10 17:26N 45°33' E 013°44'0 0.0
2017-Dec-10 16:56N 45°33' E 013°44'0 0.0
2017-Dec-10 16:29N 45°33' E 013°44'0 0.0
2017-Dec-10 15:59N 45°33' E 013°44'0 0.0
2017-Dec-10 15:26N 45°33' E 013°44'0 0.7
2017-Dec-10 15:01N 45°33' E 013°44'2 3.2
2017-Dec-10 14:31N 45°34' E 013°41'2 3.8
2017-Dec-10 14:00N 45°35' E 013°39'0 0.3
2017-Dec-10 13:30N 45°35' E 013°39'0 0.0
2017-Dec-10 13:00N 45°35' E 013°39'0 0.0
2017-Dec-10 12:30N 45°35' E 013°39'0 0.1
2017-Dec-10 12:00N 45°35' E 013°39'2 4.9
2017-Dec-10 11:30N 45°35' E 013°35'611.6
2017-Dec-10 11:00N 45°41' E 013°37'612.0
2017-Dec-10 10:30N 45°46' E 013°34'1 1.8
2017-Dec-10 09:59N 45°47' E 013°33'0 0.0
2017-Dec-10 09:29N 45°47' E 013°33'0 0.0
2017-Dec-10 08:56N 45°47' E 013°33'0 0.0
2017-Dec-10 08:29N 45°47' E 013°33'0 0.0
2017-Dec-10 07:53N 45°47' E 013°33'0 0.0
2017-Dec-10 07:29N 45°47' E 013°33'0 0.0
2017-Dec-10 06:59N 45°47' E 013°33'0 0.0
2017-Dec-10 06:29N 45°47' E 013°33'0 0.0
2017-Dec-10 05:59N 45°47' E 013°33'0 0.0
2017-Dec-10 05:26N 45°47' E 013°33'0 0.0
2017-Dec-10 04:53N 45°47' E 013°33'0 0.0
2017-Dec-10 04:29N 45°47' E 013°33'0 0.0
2017-Dec-10 03:59N 45°47' E 013°33'0 0.0
2017-Dec-10 03:29N 45°47' E 013°33'0 0.0
2017-Dec-10 02:59N 45°47' E 013°33'0 0.0
2017-Dec-10 02:26N 45°47' E 013°33'0 0.0
2017-Dec-10 01:56N 45°47' E 013°33'0 0.0
2017-Dec-10 01:26N 45°47' E 013°33'0 0.0
2017-Dec-10 00:59N 45°47' E 013°33'0 0.0
2017-Dec-10 00:29N 45°47' E 013°33'0 0.0
2017-Dec-09 23:59N 45°47' E 013°33'0 0.0
2017-Dec-09 23:26N 45°47' E 013°33'0 0.0
2017-Dec-09 22:53N 45°47' E 013°33'0 0.0
2017-Dec-09 22:29N 45°47' E 013°33'0 0.0
2017-Dec-09 21:50N 45°47' E 013°33'0 0.0
2017-Dec-09 21:23N 45°47' E 013°33'0 0.0
2017-Dec-09 20:56N 45°47' E 013°33'0 0.0
2017-Dec-09 20:29N 45°47' E 013°33'0 0.0
2017-Dec-09 19:59N 45°47' E 013°33'0 0.0
2017-Dec-09 19:17N 45°47' E 013°33'0 0.0
2017-Dec-09 18:59N 45°47' E 013°33'0 0.0
2017-Dec-09 18:29N 45°47' E 013°33'0 0.0
2017-Dec-09 17:59N 45°47' E 013°33'0 0.0
2017-Dec-09 17:29N 45°47' E 013°33'0 0.0
2017-Dec-09 16:59N 45°47' E 013°33'0 0.0
2017-Dec-09 16:29N 45°47' E 013°33'0 0.0
2017-Dec-09 15:56N 45°47' E 013°33'0 0.0
2017-Dec-09 15:29N 45°47' E 013°33'0 0.0
2017-Dec-09 14:59N 45°47' E 013°33'0 0.0
2017-Dec-09 14:29N 45°47' E 013°33'0 0.0
2017-Dec-09 13:59N 45°47' E 013°33'1 1.1
2017-Dec-09 13:30N 45°47' E 013°33'5 9.1
2017-Dec-09 13:00N 45°43' E 013°38'714.4
2017-Dec-09 12:30N 45°36' E 013°35'816.7
2017-Dec-09 12:00N 45°32' E 013°25'816.5
2017-Dec-09 11:30N 45°26' E 013°16'714.8
2017-Dec-09 11:00N 45°19' E 013°13'816.4
2017-Dec-09 10:30N 45°11' E 013°14'714.5
2017-Dec-09 10:00N 45°05' E 013°09'714.7
2017-Dec-09 09:30N 44°59' E 013°02'714.7
2017-Dec-09 09:00N 44°54' E 012°55'714.3
2017-Dec-09 08:30N 44°49' E 012°48'714.1
2017-Dec-09 08:00N 44°44' E 012°41'714.0
2017-Dec-09 07:30N 44°39' E 012°34'814.3
2017-Dec-09 06:56N 44°33' E 012°26'10 0.8
2017-Dec-08 18:34N 44°27' E 012°15'0 0.0
2017-Dec-08 18:22N 44°27' E 012°15'0 0.0
2017-Dec-08 17:58N 44°27' E 012°15'0 0.0
2017-Dec-08 16:16N 44°27' E 012°15'1 1.0
2017-Dec-08 15:15N 44°28' E 012°15'2 5.7
2017-Dec-08 14:58N 44°29' E 012°16'3 7.0
2017-Dec-08 14:30N 44°30' E 012°21'510.8
2017-Dec-08 14:00N 44°29' E 012°28'712.7
2017-Dec-08 13:29N 44°27' E 012°37'817.4
2017-Dec-08 13:00N 44°24' E 012°48'917.5
2017-Dec-08 12:30N 44°21' E 012°60'917.4
2017-Dec-08 12:00N 44°18' E 013°11'917.7
2017-Dec-08 11:30N 44°13' E 013°21'  
2017-Dec-03 00:42N 38°08' E 025°48'317.2
2017-Dec-03 00:30N 38°04' E 025°48'917.2
2017-Dec-02 23:59N 37°56' E 025°51'1117.3
2017-Dec-02 23:19N 37°44' E 025°53'517.3
2017-Dec-02 23:00N 37°39' E 025°54'816.9
2017-Dec-02 22:30N 37°31' E 025°55'816.6
2017-Dec-02 22:01N 37°23' E 025°59'816.6
2017-Dec-02 21:31N 37°15' E 026°03'816.8
2017-Dec-02 21:00N 37°08' E 026°07'816.7
2017-Dec-02 20:31N 37°00' E 026°11'816.2
2017-Dec-02 20:00N 36°54' E 026°18'816.5
2017-Dec-02 19:30N 36°48' E 026°25'816.4
2017-Dec-02 19:01N 36°42' E 026°32'816.6
2017-Dec-02 18:30N 36°37' E 026°40'816.6
2017-Dec-02 18:01N 36°31' E 026°47'816.6
2017-Dec-02 17:30N 36°25' E 026°55'816.8
2017-Dec-02 17:01N 36°19' E 027°02'917.0
2017-Dec-02 16:30N 36°13' E 027°10'916.8
2017-Dec-02 15:59N 36°07' E 027°17'816.7
2017-Dec-02 15:30N 36°00' E 027°23'916.7
2017-Dec-02 14:59N 35°54' E 027°31'38517.3
2017-Dec-01 16:40N 32°58' E 034°26'417.8
2017-Dec-01 16:25N 32°58' E 034°31'717.9
2017-Dec-01 16:00N 32°56' E 034°40'918.0
2017-Dec-01 15:30N 32°54' E 034°50'1017.4
2017-Dec-01 14:58N 32°51' E 035°01'  

Dump ship's entire track history